sensor_id;sensor_type;location;lat;lon;timestamp;P1;durP1;ratioP1;P2;durP2;ratioP2
60098;SDS011;45976;49.400;8.682;2022-08-05T00:00:29;5.82;;;1.45;;
60098;SDS011;45976;49.400;8.682;2022-08-05T00:01:30;7.57;;;1.20;;
60098;SDS011;45976;49.400;8.682;2022-08-05T00:02:32;3.53;;;1.40;;
60098;SDS011;45976;49.400;8.682;2022-08-05T00:03:33;11.00;;;1.17;;
60098;SDS011;45976;49.400;8.682;2022-08-05T00:04:33;8.48;;;1.33;;
60098;SDS011;45976;49.400;8.682;2022-08-05T00:05:34;4.35;;;1.15;;
60098;SDS011;45976;49.400;8.682;2022-08-05T00:06:35;6.53;;;1.67;;
60098;SDS011;45976;49.400;8.682;2022-08-05T00:07:35;10.98;;;1.67;;
60098;SDS011;45976;49.400;8.682;2022-08-05T00:08:37;9.77;;;1.23;;
60098;SDS011;45976;49.400;8.682;2022-08-05T00:09:38;3.28;;;1.50;;
60098;SDS011;45976;49.400;8.682;2022-08-05T00:10:39;6.55;;;1.65;;
60098;SDS011;45976;49.400;8.682;2022-08-05T00:11:39;10.13;;;1.40;;
60098;SDS011;45976;49.400;8.682;2022-08-05T00:12:40;7.03;;;1.80;;
60098;SDS011;45976;49.400;8.682;2022-08-05T00:13:41;10.93;;;1.40;;
60098;SDS011;45976;49.400;8.682;2022-08-05T00:14:43;6.65;;;1.45;;
60098;SDS011;45976;49.400;8.682;2022-08-05T00:15:44;4.60;;;1.63;;
60098;SDS011;45976;49.400;8.682;2022-08-05T00:16:44;6.97;;;1.63;;
60098;SDS011;45976;49.400;8.682;2022-08-05T00:17:45;17.58;;;2.35;;
60098;SDS011;45976;49.400;8.682;2022-08-05T00:18:46;5.00;;;1.63;;
60098;SDS011;45976;49.400;8.682;2022-08-05T00:19:48;4.95;;;1.35;;
60098;SDS011;45976;49.400;8.682;2022-08-05T00:20:49;11.18;;;1.48;;
60098;SDS011;45976;49.400;8.682;2022-08-05T00:21:51;10.38;;;1.92;;
60098;SDS011;45976;49.400;8.682;2022-08-05T00:22:51;6.93;;;1.25;;
60098;SDS011;45976;49.400;8.682;2022-08-05T00:23:52;5.50;;;1.47;;
60098;SDS011;45976;49.400;8.682;2022-08-05T00:24:52;7.93;;;1.77;;
60098;SDS011;45976;49.400;8.682;2022-08-05T00:25:53;11.60;;;1.50;;
60098;SDS011;45976;49.400;8.682;2022-08-05T00:26:54;12.70;;;2.72;;
60098;SDS011;45976;49.400;8.682;2022-08-05T00:27:54;6.45;;;1.45;;
60098;SDS011;45976;49.400;8.682;2022-08-05T00:28:55;4.17;;;1.33;;
60098;SDS011;45976;49.400;8.682;2022-08-05T00:29:55;6.25;;;1.65;;
60098;SDS011;45976;49.400;8.682;2022-08-05T00:30:56;9.30;;;1.23;;
60098;SDS011;45976;49.400;8.682;2022-08-05T00:31:57;10.57;;;1.67;;
60098;SDS011;45976;49.400;8.682;2022-08-05T00:32:57;6.07;;;1.30;;
60098;SDS011;45976;49.400;8.682;2022-08-05T00:33:58;15.97;;;1.50;;
60098;SDS011;45976;49.400;8.682;2022-08-05T00:34:59;10.07;;;1.63;;
60098;SDS011;45976;49.400;8.682;2022-08-05T00:36:00;6.85;;;1.52;;
60098;SDS011;45976;49.400;8.682;2022-08-05T00:37:01;6.07;;;1.73;;
60098;SDS011;45976;49.400;8.682;2022-08-05T00:38:01;11.50;;;2.05;;
60098;SDS011;45976;49.400;8.682;2022-08-05T00:39:02;16.52;;;1.83;;
60098;SDS011;45976;49.400;8.682;2022-08-05T00:40:03;5.65;;;1.67;;
60098;SDS011;45976;49.400;8.682;2022-08-05T00:42:06;5.88;;;1.45;;
60098;SDS011;45976;49.400;8.682;2022-08-05T00:43:07;9.32;;;1.65;;
60098;SDS011;45976;49.400;8.682;2022-08-05T00:44:07;14.40;;;2.10;;
60098;SDS011;45976;49.400;8.682;2022-08-05T00:45:08;10.52;;;2.00;;
60098;SDS011;45976;49.400;8.682;2022-08-05T00:46:09;14.38;;;2.13;;
60098;SDS011;45976;49.400;8.682;2022-08-05T00:47:10;11.25;;;2.38;;
60098;SDS011;45976;49.400;8.682;2022-08-05T00:48:11;17.33;;;2.30;;
60098;SDS011;45976;49.400;8.682;2022-08-05T00:49:22;11.55;;;1.73;;
60098;SDS011;45976;49.400;8.682;2022-08-05T00:50:23;15.73;;;2.50;;
60098;SDS011;45976;49.400;8.682;2022-08-05T00:51:24;14.20;;;2.72;;
60098;SDS011;45976;49.400;8.682;2022-08-05T00:52:24;6.38;;;2.03;;
60098;SDS011;45976;49.400;8.682;2022-08-05T00:53:25;10.68;;;2.45;;
60098;SDS011;45976;49.400;8.682;2022-08-05T00:54:26;12.73;;;2.15;;
60098;SDS011;45976;49.400;8.682;2022-08-05T00:55:26;14.32;;;1.52;;
60098;SDS011;45976;49.400;8.682;2022-08-05T00:56:27;9.80;;;2.17;;
60098;SDS011;45976;49.400;8.682;2022-08-05T00:57:28;13.03;;;2.13;;
60098;SDS011;45976;49.400;8.682;2022-08-05T00:58:28;10.68;;;2.60;;
60098;SDS011;45976;49.400;8.682;2022-08-05T00:59:29;11.47;;;2.57;;
60098;SDS011;45976;49.400;8.682;2022-08-05T01:00:30;12.80;;;2.42;;
60098;SDS011;45976;49.400;8.682;2022-08-05T01:01:30;7.43;;;1.75;;
60098;SDS011;45976;49.400;8.682;2022-08-05T01:02:31;8.52;;;2.10;;
60098;SDS011;45976;49.400;8.682;2022-08-05T01:03:32;5.03;;;2.10;;
60098;SDS011;45976;49.400;8.682;2022-08-05T01:04:32;10.43;;;2.38;;
60098;SDS011;45976;49.400;8.682;2022-08-05T01:05:33;20.77;;;2.42;;
60098;SDS011;45976;49.400;8.682;2022-08-05T01:06:34;8.82;;;2.30;;
60098;SDS011;45976;49.400;8.682;2022-08-05T01:07:35;7.88;;;2.78;;
60098;SDS011;45976;49.400;8.682;2022-08-05T01:08:35;17.30;;;3.35;;
60098;SDS011;45976;49.400;8.682;2022-08-05T01:09:36;14.05;;;2.80;;
60098;SDS011;45976;49.400;8.682;2022-08-05T01:10:39;11.35;;;2.42;;
60098;SDS011;45976;49.400;8.682;2022-08-05T01:11:47;11.18;;;2.28;;
60098;SDS011;45976;49.400;8.682;2022-08-05T01:12:54;14.43;;;2.58;;
60098;SDS011;45976;49.400;8.682;2022-08-05T01:14:25;8.95;;;2.92;;
60098;SDS011;45976;49.400;8.682;2022-08-05T01:15:38;16.73;;;2.80;;
60098;SDS011;45976;49.400;8.682;2022-08-05T01:16:50;7.97;;;2.78;;
60098;SDS011;45976;49.400;8.682;2022-08-05T01:18:07;12.15;;;2.70;;
60098;SDS011;45976;49.400;8.682;2022-08-05T01:20:29;6.47;;;2.73;;
60098;SDS011;45976;49.400;8.682;2022-08-05T01:29:10;16.92;;;2.85;;
60098;SDS011;45976;49.400;8.682;2022-08-05T01:30:18;11.25;;;2.65;;
60098;SDS011;45976;49.400;8.682;2022-08-05T01:31:27;3.58;;;2.03;;
60098;SDS011;45976;49.400;8.682;2022-08-05T01:32:34;10.27;;;2.30;;
60098;SDS011;45976;49.400;8.682;2022-08-05T01:35:22;9.20;;;2.10;;
60098;SDS011;45976;49.400;8.682;2022-08-05T01:36:31;8.25;;;2.55;;
60098;SDS011;45976;49.400;8.682;2022-08-05T01:37:50;10.90;;;2.10;;
60098;SDS011;45976;49.400;8.682;2022-08-05T01:38:54;7.40;;;2.47;;
60098;SDS011;45976;49.400;8.682;2022-08-05T01:39:56;6.72;;;2.05;;
60098;SDS011;45976;49.400;8.682;2022-08-05T01:41:00;6.38;;;2.33;;
60098;SDS011;45976;49.400;8.682;2022-08-05T01:42:04;9.23;;;2.20;;
60098;SDS011;45976;49.400;8.682;2022-08-05T01:43:11;7.72;;;2.45;;
60098;SDS011;45976;49.400;8.682;2022-08-05T01:44:15;5.15;;;2.20;;
60098;SDS011;45976;49.400;8.682;2022-08-05T01:45:17;7.28;;;1.92;;
60098;SDS011;45976;49.400;8.682;2022-08-05T01:46:21;10.35;;;1.88;;
60098;SDS011;45976;49.400;8.682;2022-08-05T01:47:24;6.78;;;2.30;;
60098;SDS011;45976;49.400;8.682;2022-08-05T01:48:28;5.40;;;2.53;;
60098;SDS011;45976;49.400;8.682;2022-08-05T01:49:34;5.82;;;2.05;;
60098;SDS011;45976;49.400;8.682;2022-08-05T01:50:39;5.32;;;2.47;;
60098;SDS011;45976;49.400;8.682;2022-08-05T01:51:41;9.85;;;2.40;;
60098;SDS011;45976;49.400;8.682;2022-08-05T01:52:44;7.43;;;2.08;;
60098;SDS011;45976;49.400;8.682;2022-08-05T01:53:48;8.43;;;2.13;;
60098;SDS011;45976;49.400;8.682;2022-08-05T01:54:57;6.88;;;2.08;;
60098;SDS011;45976;49.400;8.682;2022-08-05T01:56:02;7.07;;;1.80;;
60098;SDS011;45976;49.400;8.682;2022-08-05T01:57:06;7.20;;;2.10;;
60098;SDS011;45976;49.400;8.682;2022-08-05T01:58:09;6.70;;;2.00;;
60098;SDS011;45976;49.400;8.682;2022-08-05T01:59:14;5.75;;;1.90;;
60098;SDS011;45976;49.400;8.682;2022-08-05T02:00:18;14.27;;;2.15;;
60098;SDS011;45976;49.400;8.682;2022-08-05T02:01:20;8.98;;;2.00;;
60098;SDS011;45976;49.400;8.682;2022-08-05T02:02:23;5.28;;;1.95;;
60098;SDS011;45976;49.400;8.682;2022-08-05T02:03:35;10.27;;;2.65;;
60098;SDS011;45976;49.400;8.682;2022-08-05T02:04:42;4.38;;;1.73;;
60098;SDS011;45976;49.400;8.682;2022-08-05T02:05:47;8.63;;;2.13;;
60098;SDS011;45976;49.400;8.682;2022-08-05T02:06:50;7.88;;;2.13;;
60098;SDS011;45976;49.400;8.682;2022-08-05T02:07:51;10.00;;;2.20;;
60098;SDS011;45976;49.400;8.682;2022-08-05T02:08:52;12.65;;;1.92;;
60098;SDS011;45976;49.400;8.682;2022-08-05T02:09:54;6.95;;;2.15;;
60098;SDS011;45976;49.400;8.682;2022-08-05T02:10:55;17.33;;;2.33;;
60098;SDS011;45976;49.400;8.682;2022-08-05T02:12:08;10.30;;;2.10;;
60098;SDS011;45976;49.400;8.682;2022-08-05T02:13:24;10.93;;;1.83;;
60098;SDS011;45976;49.400;8.682;2022-08-05T02:14:32;6.07;;;1.77;;
60098;SDS011;45976;49.400;8.682;2022-08-05T02:15:40;8.60;;;1.60;;
60098;SDS011;45976;49.400;8.682;2022-08-05T02:16:52;6.65;;;1.52;;
60098;SDS011;45976;49.400;8.682;2022-08-05T02:18:03;4.70;;;1.40;;
60098;SDS011;45976;49.400;8.682;2022-08-05T02:20:48;6.22;;;1.80;;
60098;SDS011;45976;49.400;8.682;2022-08-05T02:22:01;11.05;;;1.98;;
60098;SDS011;45976;49.400;8.682;2022-08-05T02:23:17;3.85;;;1.88;;
60098;SDS011;45976;49.400;8.682;2022-08-05T02:24:24;4.15;;;1.60;;
60098;SDS011;45976;49.400;8.682;2022-08-05T02:25:37;8.20;;;1.60;;
60098;SDS011;45976;49.400;8.682;2022-08-05T02:26:55;6.60;;;1.50;;
60098;SDS011;45976;49.400;8.682;2022-08-05T02:28:02;5.22;;;1.52;;
60098;SDS011;45976;49.400;8.682;2022-08-05T02:29:07;3.85;;;1.45;;
60098;SDS011;45976;49.400;8.682;2022-08-05T02:30:12;8.15;;;2.30;;
60098;SDS011;45976;49.400;8.682;2022-08-05T02:31:14;8.82;;;1.70;;
60098;SDS011;45976;49.400;8.682;2022-08-05T02:32:25;4.05;;;1.58;;
60098;SDS011;45976;49.400;8.682;2022-08-05T02:33:31;3.30;;;1.73;;
60098;SDS011;45976;49.400;8.682;2022-08-05T02:34:39;6.28;;;2.00;;
60098;SDS011;45976;49.400;8.682;2022-08-05T02:35:42;7.35;;;2.17;;
60098;SDS011;45976;49.400;8.682;2022-08-05T02:36:49;7.57;;;1.88;;
60098;SDS011;45976;49.400;8.682;2022-08-05T02:37:56;5.57;;;1.80;;
60098;SDS011;45976;49.400;8.682;2022-08-05T02:38:59;3.97;;;1.70;;
60098;SDS011;45976;49.400;8.682;2022-08-05T02:40:05;3.22;;;1.55;;
60098;SDS011;45976;49.400;8.682;2022-08-05T02:41:08;5.03;;;1.48;;
60098;SDS011;45976;49.400;8.682;2022-08-05T02:42:10;5.10;;;1.63;;
60098;SDS011;45976;49.400;8.682;2022-08-05T02:43:11;6.10;;;1.70;;
60098;SDS011;45976;49.400;8.682;2022-08-05T02:44:16;5.80;;;1.95;;
60098;SDS011;45976;49.400;8.682;2022-08-05T02:45:22;6.20;;;1.92;;
60098;SDS011;45976;49.400;8.682;2022-08-05T02:46:27;6.78;;;2.05;;
60098;SDS011;45976;49.400;8.682;2022-08-05T02:47:29;9.23;;;2.53;;
60098;SDS011;45976;49.400;8.682;2022-08-05T02:48:34;6.45;;;1.92;;
60098;SDS011;45976;49.400;8.682;2022-08-05T02:49:38;10.95;;;2.38;;
60098;SDS011;45976;49.400;8.682;2022-08-05T02:50:43;11.45;;;2.28;;
60098;SDS011;45976;49.400;8.682;2022-08-05T02:51:49;4.88;;;2.15;;
60098;SDS011;45976;49.400;8.682;2022-08-05T02:52:51;7.65;;;2.00;;
60098;SDS011;45976;49.400;8.682;2022-08-05T02:53:52;4.28;;;1.70;;
60098;SDS011;45976;49.400;8.682;2022-08-05T02:55:55;8.88;;;3.30;;
60098;SDS011;45976;49.400;8.682;2022-08-05T02:56:57;7.55;;;2.40;;
60098;SDS011;45976;49.400;8.682;2022-08-05T02:57:59;3.88;;;2.10;;
60098;SDS011;45976;49.400;8.682;2022-08-05T02:59:02;11.07;;;2.53;;
60098;SDS011;45976;49.400;8.682;2022-08-05T03:00:05;7.30;;;2.15;;
60098;SDS011;45976;49.400;8.682;2022-08-05T03:01:10;13.27;;;2.72;;
60098;SDS011;45976;49.400;8.682;2022-08-05T03:02:18;12.52;;;2.53;;
60098;SDS011;45976;49.400;8.682;2022-08-05T03:03:27;8.20;;;2.13;;
60098;SDS011;45976;49.400;8.682;2022-08-05T03:04:28;9.20;;;2.60;;
60098;SDS011;45976;49.400;8.682;2022-08-05T03:05:32;8.23;;;2.83;;
60098;SDS011;45976;49.400;8.682;2022-08-05T03:06:33;16.23;;;2.92;;
60098;SDS011;45976;49.400;8.682;2022-08-05T03:07:35;14.32;;;2.33;;
60098;SDS011;45976;49.400;8.682;2022-08-05T03:08:38;12.73;;;2.92;;
60098;SDS011;45976;49.400;8.682;2022-08-05T03:09:41;23.08;;;3.38;;
60098;SDS011;45976;49.400;8.682;2022-08-05T03:10:43;15.85;;;2.80;;
60098;SDS011;45976;49.400;8.682;2022-08-05T03:12:45;12.52;;;2.97;;
60098;SDS011;45976;49.400;8.682;2022-08-05T03:13:46;10.60;;;3.03;;
60098;SDS011;45976;49.400;8.682;2022-08-05T03:14:47;16.08;;;2.83;;
60098;SDS011;45976;49.400;8.682;2022-08-05T03:15:48;22.20;;;3.03;;
60098;SDS011;45976;49.400;8.682;2022-08-05T03:16:48;10.70;;;2.70;;
60098;SDS011;45976;49.400;8.682;2022-08-05T03:17:50;8.73;;;2.80;;
60098;SDS011;45976;49.400;8.682;2022-08-05T03:18:53;14.50;;;2.55;;
60098;SDS011;45976;49.400;8.682;2022-08-05T03:19:54;10.27;;;2.65;;
60098;SDS011;45976;49.400;8.682;2022-08-05T03:20:54;12.73;;;2.70;;
60098;SDS011;45976;49.400;8.682;2022-08-05T03:21:55;6.63;;;2.47;;
60098;SDS011;45976;49.400;8.682;2022-08-05T03:22:56;7.93;;;3.00;;
60098;SDS011;45976;49.400;8.682;2022-08-05T03:23:58;8.50;;;2.90;;
60098;SDS011;45976;49.400;8.682;2022-08-05T03:24:59;11.50;;;2.47;;
60098;SDS011;45976;49.400;8.682;2022-08-05T03:27:02;10.70;;;2.80;;
60098;SDS011;45976;49.400;8.682;2022-08-05T03:28:04;11.05;;;2.55;;
60098;SDS011;45976;49.400;8.682;2022-08-05T03:29:06;16.90;;;2.97;;
60098;SDS011;45976;49.400;8.682;2022-08-05T03:30:07;8.97;;;2.90;;
60098;SDS011;45976;49.400;8.682;2022-08-05T03:31:09;4.60;;;2.40;;
60098;SDS011;45976;49.400;8.682;2022-08-05T03:32:11;11.18;;;2.75;;
60098;SDS011;45976;49.400;8.682;2022-08-05T03:33:12;8.75;;;2.42;;
60098;SDS011;45976;49.400;8.682;2022-08-05T03:34:13;12.38;;;3.13;;
60098;SDS011;45976;49.400;8.682;2022-08-05T03:35:14;7.13;;;2.40;;
60098;SDS011;45976;49.400;8.682;2022-08-05T03:36:16;8.95;;;2.65;;
60098;SDS011;45976;49.400;8.682;2022-08-05T03:37:17;12.13;;;2.83;;
60098;SDS011;45976;49.400;8.682;2022-08-05T03:38:19;11.55;;;3.00;;
60098;SDS011;45976;49.400;8.682;2022-08-05T03:39:21;11.20;;;2.72;;
60098;SDS011;45976;49.400;8.682;2022-08-05T03:40:22;5.85;;;2.88;;
60098;SDS011;45976;49.400;8.682;2022-08-05T03:41:23;6.28;;;2.30;;
60098;SDS011;45976;49.400;8.682;2022-08-05T03:42:24;12.93;;;3.00;;
60098;SDS011;45976;49.400;8.682;2022-08-05T03:43:25;8.13;;;2.33;;
60098;SDS011;45976;49.400;8.682;2022-08-05T03:44:26;10.23;;;2.83;;
60098;SDS011;45976;49.400;8.682;2022-08-05T03:45:26;9.18;;;3.00;;
60098;SDS011;45976;49.400;8.682;2022-08-05T03:46:27;11.23;;;3.03;;
60098;SDS011;45976;49.400;8.682;2022-08-05T03:47:28;8.45;;;2.25;;
60098;SDS011;45976;49.400;8.682;2022-08-05T03:48:29;9.35;;;2.30;;
60098;SDS011;45976;49.400;8.682;2022-08-05T03:49:30;11.82;;;2.40;;
60098;SDS011;45976;49.400;8.682;2022-08-05T03:50:42;6.93;;;2.97;;
60098;SDS011;45976;49.400;8.682;2022-08-05T03:52:10;6.18;;;2.30;;
60098;SDS011;45976;49.400;8.682;2022-08-05T03:53:25;8.68;;;2.67;;
60098;SDS011;45976;49.400;8.682;2022-08-05T03:54:36;8.30;;;2.45;;
60098;SDS011;45976;49.400;8.682;2022-08-05T03:55:51;5.50;;;2.92;;
60098;SDS011;45976;49.400;8.682;2022-08-05T03:57:02;8.35;;;3.05;;
60098;SDS011;45976;49.400;8.682;2022-08-05T03:58:10;10.57;;;2.50;;
60098;SDS011;45976;49.400;8.682;2022-08-05T03:59:20;10.18;;;2.63;;
60098;SDS011;45976;49.400;8.682;2022-08-05T04:00:27;7.38;;;3.00;;
60098;SDS011;45976;49.400;8.682;2022-08-05T04:01:31;11.68;;;2.85;;
60098;SDS011;45976;49.400;8.682;2022-08-05T04:02:39;10.23;;;2.78;;
60098;SDS011;45976;49.400;8.682;2022-08-05T04:03:47;17.10;;;3.08;;
60098;SDS011;45976;49.400;8.682;2022-08-05T04:04:50;11.35;;;2.88;;
60098;SDS011;45976;49.400;8.682;2022-08-05T04:05:52;10.82;;;2.67;;
60098;SDS011;45976;49.400;8.682;2022-08-05T04:06:55;8.02;;;2.90;;
60098;SDS011;45976;49.400;8.682;2022-08-05T04:08:02;16.58;;;2.83;;
60098;SDS011;45976;49.400;8.682;2022-08-05T04:09:08;10.35;;;3.28;;
60098;SDS011;45976;49.400;8.682;2022-08-05T04:10:10;14.95;;;3.85;;
60098;SDS011;45976;49.400;8.682;2022-08-05T04:11:11;12.73;;;3.78;;
60098;SDS011;45976;49.400;8.682;2022-08-05T04:12:12;16.33;;;4.25;;
60098;SDS011;45976;49.400;8.682;2022-08-05T04:13:13;20.20;;;4.10;;
60098;SDS011;45976;49.400;8.682;2022-08-05T04:14:17;11.35;;;3.42;;
60098;SDS011;45976;49.400;8.682;2022-08-05T04:15:18;14.25;;;3.65;;
60098;SDS011;45976;49.400;8.682;2022-08-05T04:16:19;9.82;;;3.55;;
60098;SDS011;45976;49.400;8.682;2022-08-05T04:17:20;6.47;;;3.17;;
60098;SDS011;45976;49.400;8.682;2022-08-05T04:18:22;10.23;;;2.85;;
60098;SDS011;45976;49.400;8.682;2022-08-05T04:19:26;13.80;;;3.45;;
60098;SDS011;45976;49.400;8.682;2022-08-05T04:20:28;6.97;;;3.65;;
60098;SDS011;45976;49.400;8.682;2022-08-05T04:21:29;9.32;;;3.25;;
60098;SDS011;45976;49.400;8.682;2022-08-05T04:22:30;6.93;;;3.55;;
60098;SDS011;45976;49.400;8.682;2022-08-05T04:23:31;9.33;;;3.60;;
60098;SDS011;45976;49.400;8.682;2022-08-05T04:24:35;10.85;;;3.75;;
60098;SDS011;45976;49.400;8.682;2022-08-05T04:25:39;8.85;;;3.10;;
60098;SDS011;45976;49.400;8.682;2022-08-05T04:26:40;10.03;;;3.50;;
60098;SDS011;45976;49.400;8.682;2022-08-05T04:27:41;14.80;;;4.25;;
60098;SDS011;45976;49.400;8.682;2022-08-05T04:28:41;18.33;;;3.45;;
60098;SDS011;45976;49.400;8.682;2022-08-05T04:29:42;9.17;;;3.47;;
60098;SDS011;45976;49.400;8.682;2022-08-05T04:30:43;14.43;;;3.57;;
60098;SDS011;45976;49.400;8.682;2022-08-05T04:31:44;9.50;;;3.80;;
60098;SDS011;45976;49.400;8.682;2022-08-05T04:32:45;18.23;;;3.67;;
60098;SDS011;45976;49.400;8.682;2022-08-05T04:33:45;7.17;;;3.67;;
60098;SDS011;45976;49.400;8.682;2022-08-05T04:35:47;7.57;;;2.65;;
60098;SDS011;45976;49.400;8.682;2022-08-05T04:36:48;7.05;;;3.08;;
60098;SDS011;45976;49.400;8.682;2022-08-05T04:37:49;9.55;;;3.20;;
60098;SDS011;45976;49.400;8.682;2022-08-05T04:38:50;8.73;;;3.53;;
60098;SDS011;45976;49.400;8.682;2022-08-05T04:40:51;8.35;;;3.05;;
60098;SDS011;45976;49.400;8.682;2022-08-05T04:41:52;9.57;;;3.33;;
60098;SDS011;45976;49.400;8.682;2022-08-05T04:42:53;9.30;;;3.10;;
60098;SDS011;45976;49.400;8.682;2022-08-05T04:43:53;4.03;;;2.40;;
60098;SDS011;45976;49.400;8.682;2022-08-05T04:44:54;13.20;;;3.13;;
60098;SDS011;45976;49.400;8.682;2022-08-05T04:45:54;6.27;;;3.10;;
60098;SDS011;45976;49.400;8.682;2022-08-05T04:46:55;10.10;;;3.00;;
60098;SDS011;45976;49.400;8.682;2022-08-05T04:48:08;5.53;;;2.47;;
60098;SDS011;45976;49.400;8.682;2022-08-05T04:49:11;8.70;;;2.45;;
60098;SDS011;45976;49.400;8.682;2022-08-05T04:50:11;6.87;;;2.53;;
60098;SDS011;45976;49.400;8.682;2022-08-05T04:51:12;6.33;;;2.50;;
60098;SDS011;45976;49.400;8.682;2022-08-05T04:52:13;5.43;;;2.60;;
60098;SDS011;45976;49.400;8.682;2022-08-05T04:53:15;6.38;;;3.15;;
60098;SDS011;45976;49.400;8.682;2022-08-05T04:54:17;5.60;;;2.55;;
60098;SDS011;45976;49.400;8.682;2022-08-05T04:56:19;5.25;;;2.05;;
60098;SDS011;45976;49.400;8.682;2022-08-05T04:57:19;5.20;;;2.20;;
60098;SDS011;45976;49.400;8.682;2022-08-05T04:58:20;9.20;;;2.30;;
60098;SDS011;45976;49.400;8.682;2022-08-05T04:59:21;7.60;;;2.50;;
60098;SDS011;45976;49.400;8.682;2022-08-05T05:00:22;8.10;;;2.00;;
60098;SDS011;45976;49.400;8.682;2022-08-05T05:01:22;8.00;;;2.30;;
60098;SDS011;45976;49.400;8.682;2022-08-05T05:02:23;7.93;;;2.40;;
60098;SDS011;45976;49.400;8.682;2022-08-05T05:03:25;6.25;;;2.33;;
60098;SDS011;45976;49.400;8.682;2022-08-05T05:04:25;3.53;;;2.10;;
60098;SDS011;45976;49.400;8.682;2022-08-05T05:05:26;3.70;;;2.30;;
60098;SDS011;45976;49.400;8.682;2022-08-05T05:06:27;5.72;;;2.03;;
60098;SDS011;45976;49.400;8.682;2022-08-05T05:07:28;3.67;;;1.90;;
60098;SDS011;45976;49.400;8.682;2022-08-05T05:08:29;6.25;;;2.17;;
60098;SDS011;45976;49.400;8.682;2022-08-05T05:09:29;7.50;;;2.33;;
60098;SDS011;45976;49.400;8.682;2022-08-05T05:10:30;5.07;;;1.83;;
60098;SDS011;45976;49.400;8.682;2022-08-05T05:11:42;4.03;;;1.92;;
60098;SDS011;45976;49.400;8.682;2022-08-05T05:12:43;6.63;;;1.65;;
60098;SDS011;45976;49.400;8.682;2022-08-05T05:13:44;4.90;;;2.40;;
60098;SDS011;45976;49.400;8.682;2022-08-05T05:14:44;5.87;;;1.53;;
60098;SDS011;45976;49.400;8.682;2022-08-05T05:15:45;3.00;;;1.73;;
60098;SDS011;45976;49.400;8.682;2022-08-05T05:16:45;4.10;;;1.83;;
60098;SDS011;45976;49.400;8.682;2022-08-05T05:17:46;10.70;;;2.03;;
60098;SDS011;45976;49.400;8.682;2022-08-05T05:18:47;6.00;;;2.15;;
60098;SDS011;45976;49.400;8.682;2022-08-05T05:19:47;7.27;;;2.23;;
60098;SDS011;45976;49.400;8.682;2022-08-05T05:20:48;7.53;;;2.17;;
60098;SDS011;45976;49.400;8.682;2022-08-05T05:21:49;7.07;;;1.75;;
60098;SDS011;45976;49.400;8.682;2022-08-05T05:22:49;6.03;;;2.10;;
60098;SDS011;45976;49.400;8.682;2022-08-05T05:23:50;2.63;;;1.63;;
60098;SDS011;45976;49.400;8.682;2022-08-05T05:24:50;4.23;;;1.63;;
60098;SDS011;45976;49.400;8.682;2022-08-05T05:25:51;5.53;;;2.00;;
60098;SDS011;45976;49.400;8.682;2022-08-05T05:26:51;10.13;;;3.50;;
60098;SDS011;45976;49.400;8.682;2022-08-05T05:27:52;3.00;;;1.60;;
60098;SDS011;45976;49.400;8.682;2022-08-05T05:28:53;3.43;;;1.87;;
60098;SDS011;45976;49.400;8.682;2022-08-05T05:29:53;3.85;;;1.83;;
60098;SDS011;45976;49.400;8.682;2022-08-05T05:30:54;5.30;;;2.10;;
60098;SDS011;45976;49.400;8.682;2022-08-05T05:31:54;4.30;;;1.80;;
60098;SDS011;45976;49.400;8.682;2022-08-05T05:32:56;3.88;;;1.95;;
60098;SDS011;45976;49.400;8.682;2022-08-05T05:33:57;3.08;;;1.60;;
60098;SDS011;45976;49.400;8.682;2022-08-05T05:34:58;2.72;;;1.55;;
60098;SDS011;45976;49.400;8.682;2022-08-05T05:35:59;6.13;;;1.50;;
60098;SDS011;45976;49.400;8.682;2022-08-05T05:37:00;3.67;;;1.53;;
60098;SDS011;45976;49.400;8.682;2022-08-05T05:38:01;4.77;;;1.50;;
60098;SDS011;45976;49.400;8.682;2022-08-05T05:39:04;3.95;;;1.80;;
60098;SDS011;45976;49.400;8.682;2022-08-05T05:40:05;4.78;;;2.05;;
60098;SDS011;45976;49.400;8.682;2022-08-05T05:41:06;6.60;;;1.73;;
60098;SDS011;45976;49.400;8.682;2022-08-05T05:42:07;4.35;;;1.83;;
60098;SDS011;45976;49.400;8.682;2022-08-05T05:43:08;4.72;;;1.48;;
60098;SDS011;45976;49.400;8.682;2022-08-05T05:44:09;5.03;;;1.80;;
60098;SDS011;45976;49.400;8.682;2022-08-05T05:45:09;8.60;;;1.65;;
60098;SDS011;45976;49.400;8.682;2022-08-05T05:46:10;3.90;;;1.67;;
60098;SDS011;45976;49.400;8.682;2022-08-05T05:47:11;4.18;;;1.60;;
60098;SDS011;45976;49.400;8.682;2022-08-05T05:48:12;6.57;;;1.98;;
60098;SDS011;45976;49.400;8.682;2022-08-05T05:49:12;3.83;;;1.73;;
60098;SDS011;45976;49.400;8.682;2022-08-05T05:50:14;4.53;;;1.55;;
60098;SDS011;45976;49.400;8.682;2022-08-05T05:51:23;4.03;;;2.00;;
60098;SDS011;45976;49.400;8.682;2022-08-05T05:52:24;5.00;;;1.42;;
60098;SDS011;45976;49.400;8.682;2022-08-05T05:53:25;8.52;;;1.65;;
60098;SDS011;45976;49.400;8.682;2022-08-05T05:54:26;3.93;;;1.60;;
60098;SDS011;45976;49.400;8.682;2022-08-05T05:55:26;4.00;;;1.60;;
60098;SDS011;45976;49.400;8.682;2022-08-05T05:56:27;5.13;;;1.65;;
60098;SDS011;45976;49.400;8.682;2022-08-05T05:57:30;7.18;;;1.50;;
60098;SDS011;45976;49.400;8.682;2022-08-05T05:58:31;3.33;;;1.63;;
60098;SDS011;45976;49.400;8.682;2022-08-05T05:59:31;5.73;;;1.60;;
60098;SDS011;45976;49.400;8.682;2022-08-05T06:00:32;2.53;;;1.27;;
60098;SDS011;45976;49.400;8.682;2022-08-05T06:01:33;6.70;;;1.70;;
60098;SDS011;45976;49.400;8.682;2022-08-05T06:02:37;4.75;;;1.50;;
60098;SDS011;45976;49.400;8.682;2022-08-05T06:03:38;4.32;;;1.45;;
60098;SDS011;45976;49.400;8.682;2022-08-05T06:04:40;3.72;;;1.20;;
60098;SDS011;45976;49.400;8.682;2022-08-05T06:05:41;4.93;;;1.48;;
60098;SDS011;45976;49.400;8.682;2022-08-05T06:06:42;5.40;;;1.60;;
60098;SDS011;45976;49.400;8.682;2022-08-05T06:07:44;3.97;;;1.40;;
60098;SDS011;45976;49.400;8.682;2022-08-05T06:08:45;3.00;;;1.50;;
60098;SDS011;45976;49.400;8.682;2022-08-05T06:09:45;3.80;;;1.53;;
60098;SDS011;45976;49.400;8.682;2022-08-05T06:10:46;3.10;;;1.60;;
60098;SDS011;45976;49.400;8.682;2022-08-05T06:11:46;2.97;;;2.03;;
60098;SDS011;45976;49.400;8.682;2022-08-05T06:12:47;5.13;;;1.80;;
60098;SDS011;45976;49.400;8.682;2022-08-05T06:13:48;3.60;;;1.60;;
60098;SDS011;45976;49.400;8.682;2022-08-05T06:14:48;3.97;;;1.60;;
60098;SDS011;45976;49.400;8.682;2022-08-05T06:15:49;3.17;;;1.27;;
60098;SDS011;45976;49.400;8.682;2022-08-05T06:16:50;5.60;;;1.53;;
60098;SDS011;45976;49.400;8.682;2022-08-05T06:17:50;6.60;;;1.92;;
60098;SDS011;45976;49.400;8.682;2022-08-05T06:18:51;3.95;;;1.50;;
60098;SDS011;45976;49.400;8.682;2022-08-05T06:19:51;4.23;;;1.50;;
60098;SDS011;45976;49.400;8.682;2022-08-05T06:20:52;3.58;;;1.60;;
60098;SDS011;45976;49.400;8.682;2022-08-05T06:21:53;4.00;;;1.70;;
60098;SDS011;45976;49.400;8.682;2022-08-05T06:22:53;3.53;;;1.73;;
60098;SDS011;45976;49.400;8.682;2022-08-05T06:23:54;3.83;;;1.63;;
60098;SDS011;45976;49.400;8.682;2022-08-05T06:24:55;6.30;;;1.57;;
60098;SDS011;45976;49.400;8.682;2022-08-05T06:25:56;3.90;;;1.98;;
60098;SDS011;45976;49.400;8.682;2022-08-05T06:26:56;2.95;;;1.70;;
60098;SDS011;45976;49.400;8.682;2022-08-05T06:27:58;6.72;;;1.83;;
60098;SDS011;45976;49.400;8.682;2022-08-05T06:28:58;4.95;;;1.63;;
60098;SDS011;45976;49.400;8.682;2022-08-05T06:29:59;5.43;;;1.50;;
60098;SDS011;45976;49.400;8.682;2022-08-05T06:30:59;12.50;;;1.90;;
60098;SDS011;45976;49.400;8.682;2022-08-05T06:32:00;3.90;;;1.50;;
60098;SDS011;45976;49.400;8.682;2022-08-05T06:33:01;5.40;;;1.70;;
60098;SDS011;45976;49.400;8.682;2022-08-05T06:34:01;3.55;;;1.75;;
60098;SDS011;45976;49.400;8.682;2022-08-05T06:35:06;1.67;;;1.42;;
60098;SDS011;45976;49.400;8.682;2022-08-05T06:36:07;5.32;;;1.55;;